Time;durP1;ratioP1;P1;durP2;ratioP2;P2;SDS_P1;SDS_P2;PMS_P1;PMS_P2;Temp;Humidity;BMP_temperature;BMP_pressure;BME280_temperature;BME280_humidity;BME280_pressure;Samples;Min_cycle;Max_cycle;Signal;HPM_P1;HPM_P2
2023/03/02 00:00:57;;;;;;;64.20;35.00;;;2.60;99.90;;;;;;5040389;28;20049;-83
2023/03/02 00:03:23;;;;;;;67.57;35.30;;;2.60;99.90;;;;;;5039738;28;20168;-83
2023/03/02 00:05:49;;;;;;;66.30;36.57;;;2.60;99.90;;;;;;5030334;28;20136;-81
2023/03/02 00:08:17;;;;;;;68.57;36.57;;;2.60;99.90;;;;;;5013832;28;20046;-82
2023/03/02 00:10:43;;;;;;;66.13;34.80;;;2.70;99.90;;;;;;5032655;28;20045;-84
2023/03/02 00:13:09;;;;;;;69.03;37.17;;;2.60;99.90;;;;;;4992095;28;20102;-84
2023/03/02 00:15:35;;;;;;;63.63;34.53;;;2.60;99.90;;;;;;5011246;28;20034;-83
2023/03/02 00:18:00;;;;;;;66.03;36.10;;;2.60;99.90;;;;;;5020502;28;20047;-83
2023/03/02 00:20:26;;;;;;;68.07;37.37;;;2.60;99.90;;;;;;5031093;28;20050;-84
2023/03/02 00:22:52;;;;;;;71.50;37.57;;;2.60;99.90;;;;;;5009072;28;20056;-83
2023/03/02 00:25:18;;;;;;;70.07;36.80;;;2.60;99.90;;;;;;4980963;28;20050;-83
2023/03/02 00:27:44;;;;;;;72.63;37.60;;;2.60;99.90;;;;;;5040815;28;20505;-82
2023/03/02 00:30:11;;;;;;;67.50;37.17;;;2.60;99.90;;;;;;4999686;28;20393;-82
2023/03/02 00:32:37;;;;;;;75.40;38.57;;;2.60;99.90;;;;;;5019325;28;20037;-83
2023/03/02 00:35:04;;;;;;;71.33;36.83;;;2.60;99.90;;;;;;5014382;28;20108;-83
2023/03/02 00:37:29;;;;;;;73.83;39.13;;;2.60;99.90;;;;;;5012694;28;20490;-81
2023/03/02 00:39:55;;;;;;;72.17;39.03;;;2.60;99.90;;;;;;4990844;28;20129;-82
2023/03/02 00:42:21;;;;;;;73.10;39.13;;;2.60;99.90;;;;;;5020373;28;20554;-82
2023/03/02 00:44:46;;;;;;;71.80;37.80;;;2.60;99.90;;;;;;4998545;28;20064;-82
2023/03/02 00:47:12;;;;;;;68.83;37.43;;;2.50;99.90;;;;;;5006958;28;20046;-82
2023/03/02 00:49:38;;;;;;;76.57;38.77;;;2.50;99.90;;;;;;5007111;28;20037;-82
2023/03/02 00:52:04;;;;;;;70.23;37.03;;;2.50;99.90;;;;;;4989247;28;20466;-82
2023/03/02 00:54:30;;;;;;;73.70;37.93;;;2.50;99.90;;;;;;5021683;28;20045;-82
2023/03/02 00:56:56;;;;;;;70.63;36.97;;;2.50;99.90;;;;;;4999640;28;20038;-82
2023/03/02 00:59:25;;;;;;;67.77;36.57;;;2.50;99.90;;;;;;5018462;28;20410;-82
2023/03/02 01:01:58;;;;;;;65.73;36.37;;;2.50;99.90;;;;;;5021748;28;20092;-82
2023/03/02 01:04:30;;;;;;;60.73;32.90;;;2.50;99.90;;;;;;4999133;28;20455;-82
2023/03/02 01:07:01;;;;;;;59.90;33.60;;;2.50;99.90;;;;;;5035589;28;20050;-82
2023/03/02 01:09:28;;;;;;;56.85;30.75;;;2.50;99.90;;;;;;5021259;28;20048;-82
2023/03/02 01:11:54;;;;;;;58.50;31.37;;;2.50;99.90;;;;;;4996158;28;20354;-82
2023/03/02 01:14:19;;;;;;;58.67;31.37;;;2.50;99.90;;;;;;5027748;28;20048;-82
2023/03/02 01:16:46;;;;;;;60.63;32.53;;;2.50;99.90;;;;;;5003630;28;20532;-81
2023/03/02 01:19:13;;;;;;;58.40;31.90;;;2.40;99.90;;;;;;5011547;28;20108;-82
2023/03/02 01:21:39;;;;;;;60.50;33.17;;;2.40;99.90;;;;;;5001538;28;20062;-82
2023/03/02 01:24:05;;;;;;;63.73;33.87;;;2.40;99.90;;;;;;5030870;28;20426;-82
2023/03/02 01:26:31;;;;;;;67.30;35.73;;;2.40;99.90;;;;;;5028588;28;20045;-81
2023/03/02 01:28:56;;;;;;;65.10;34.93;;;2.40;99.90;;;;;;5002720;28;20038;-82
2023/03/02 01:31:23;;;;;;;67.43;34.57;;;2.30;99.90;;;;;;4995014;28;20037;-83
2023/03/02 01:33:48;;;;;;;66.83;35.73;;;2.30;99.90;;;;;;4994388;28;20109;-83
2023/03/02 01:36:15;;;;;;;70.07;35.30;;;2.30;99.90;;;;;;4992930;28;20073;-83
2023/03/02 01:38:41;;;;;;;66.30;35.43;;;2.30;99.90;;;;;;5046502;28;20389;-82
2023/03/02 01:41:08;;;;;;;66.33;36.07;;;2.30;99.90;;;;;;5010801;28;20049;-83
2023/03/02 01:43:34;;;;;;;67.27;35.27;;;2.30;99.90;;;;;;5021299;28;20046;-82
2023/03/02 01:46:11;;;;;;;65.23;35.70;;;2.20;99.90;;;;;;4994426;28;20410;-82
2023/03/02 01:48:47;;;;;;;70.93;37.10;;;2.20;99.90;;;;;;5015100;28;20037;-82
2023/03/02 01:51:17;;;;;;;67.63;35.13;;;2.20;99.90;;;;;;4994596;28;20046;-83
2023/03/02 01:53:48;;;;;;;67.83;34.50;;;2.10;99.90;;;;;;5000678;28;20112;-82
2023/03/02 01:56:20;;;;;;;63.33;34.37;;;2.10;99.90;;;;;;5022789;28;20121;-82
2023/03/02 01:58:50;;;;;;;72.57;36.20;;;2.10;99.90;;;;;;5010042;28;20052;-83
2023/03/02 02:01:16;;;;;;;66.73;33.93;;;2.10;99.90;;;;;;4986709;28;20051;-82
2023/03/02 02:03:49;;;;;;;74.67;36.13;;;2.10;99.90;;;;;;5019566;28;20029;-83
2023/03/02 02:06:36;;;;;;;68.60;36.63;;;2.10;99.90;;;;;;5021347;28;20067;-83
2023/03/02 02:09:03;;;;;;;68.90;35.83;;;2.10;99.90;;;;;;5036253;28;20076;-82
2023/03/02 02:11:30;;;;;;;69.90;35.93;;;2.00;99.90;;;;;;5016025;28;20047;-83
2023/03/02 02:14:00;;;;;;;69.73;36.50;;;2.00;99.90;;;;;;5041307;28;20048;-82
2023/03/02 02:16:29;;;;;;;69.57;34.90;;;2.00;99.90;;;;;;5017318;28;20046;-83
2023/03/02 02:18:56;;;;;;;67.43;35.07;;;2.00;99.90;;;;;;5033953;28;20029;-83
2023/03/02 02:21:24;;;;;;;71.30;36.70;;;2.00;99.90;;;;;;5050810;28;20041;-83
2023/03/02 02:24:10;;;;;;;68.83;36.07;;;1.90;99.90;;;;;;5004975;28;20099;-82
2023/03/02 02:26:43;;;;;;;76.33;37.63;;;1.90;99.90;;;;;;5017523;28;20041;-83
2023/03/02 02:29:14;;;;;;;79.57;38.70;;;1.90;99.90;;;;;;5003682;28;20038;-82
2023/03/02 02:31:48;;;;;;;74.10;36.73;;;1.80;99.90;;;;;;5007997;28;20474;-83
2023/03/02 02:34:22;;;;;;;76.50;39.20;;;1.90;99.90;;;;;;5010794;28;20045;-82
2023/03/02 02:36:51;;;;;;;77.67;39.20;;;1.90;99.90;;;;;;5042677;28;20113;-83
2023/03/02 02:39:25;;;;;;;76.70;38.40;;;1.90;99.90;;;;;;5042554;28;20473;-83
2023/03/02 02:41:55;;;;;;;80.17;39.63;;;1.90;99.90;;;;;;5030787;28;20103;-83
2023/03/02 02:44:21;;;;;;;85.13;40.80;;;1.90;99.90;;;;;;4994523;28;20052;-82
2023/03/02 02:46:46;;;;;;;78.53;38.63;;;1.80;99.90;;;;;;5027839;28;20037;-80
2023/03/02 02:49:27;;;;;;;76.00;36.87;;;1.80;99.90;;;;;;5001054;28;20064;-82
2023/03/02 02:51:53;;;;;;;75.57;38.10;;;1.90;99.90;;;;;;5036529;28;20397;-83
2023/03/02 02:54:19;;;;;;;75.53;36.70;;;1.90;99.90;;;;;;5028388;28;20134;-83
2023/03/02 02:56:47;;;;;;;76.03;38.00;;;1.90;99.90;;;;;;5000395;28;20050;-83
2023/03/02 02:59:19;;;;;;;74.43;36.03;;;1.90;99.90;;;;;;5013382;28;20050;-83
2023/03/02 03:01:46;;;;;;;92.13;37.60;;;1.90;99.90;;;;;;5002153;28;20041;-81
2023/03/02 03:04:17;;;;;;;89.23;37.77;;;1.90;99.90;;;;;;5034130;28;20042;-81
2023/03/02 03:06:57;;;;;;;82.47;38.60;;;1.80;99.90;;;;;;5019794;28;20394;-82
2023/03/02 03:09:23;;;;;;;82.03;37.20;;;1.80;99.90;;;;;;5026830;28;20574;-83
2023/03/02 03:11:55;;;;;;;75.37;36.43;;;1.70;99.90;;;;;;5022213;28;20042;-82
2023/03/02 03:14:24;;;;;;;;;;;1.70;99.90;;;;;;5035530;28;20071;-83
2023/03/02 03:16:50;;;;;;;88.03;35.70;;;1.70;99.90;;;;;;5029991;28;19921;-83
2023/03/02 03:19:32;;;;;;;123.50;39.27;;;1.60;99.90;;;;;;5026793;28;20076;-82
2023/03/02 03:22:00;;;;;;;133.60;41.53;;;1.70;99.90;;;;;;5035198;28;20820;-83
2023/03/02 03:24:28;;;;;;;96.57;34.20;;;1.60;99.90;;;;;;5043637;28;20547;-83
2023/03/02 03:26:54;;;;;;;160.80;43.47;;;1.60;99.90;;;;;;5028231;28;20045;-82
2023/03/02 03:29:22;;;;;;;140.87;43.07;;;1.50;99.90;;;;;;5033331;28;20125;-83
2023/03/02 03:31:50;;;;;;;129.23;40.00;;;1.50;99.90;;;;;;5028854;28;20114;-83
2023/03/02 03:34:16;;;;;;;110.73;35.50;;;1.40;99.90;;;;;;5053004;28;20044;-83
2023/03/02 03:36:42;;;;;;;145.73;38.27;;;1.50;99.90;;;;;;5044628;28;20030;-83
2023/03/02 03:39:09;;;;;;;143.13;36.97;;;1.50;99.90;;;;;;5012901;28;20115;-83
2023/03/02 03:41:35;;;;;;;112.47;34.70;;;1.50;99.90;;;;;;5017869;28;20528;-83
2023/03/02 03:44:01;;;;;;;111.50;35.57;;;1.40;99.90;;;;;;5033735;28;20492;-82
2023/03/02 03:46:27;;;;;;;144.83;37.53;;;1.40;99.90;;;;;;5029214;28;20073;-83
2023/03/02 03:48:53;;;;;;;219.57;46.13;;;1.40;99.90;;;;;;4996185;28;20104;-83
2023/03/02 03:51:19;;;;;;;228.87;49.20;;;1.30;99.90;;;;;;4996276;28;20038;-82
2023/03/02 03:53:45;;;;;;;143.73;40.53;;;1.30;99.90;;;;;;5005412;28;20061;-84
2023/03/02 03:56:11;;;;;;;163.47;41.53;;;1.30;99.90;;;;;;5032331;28;20066;-83
2023/03/02 03:58:37;;;;;;;207.77;46.17;;;1.30;99.90;;;;;;5023212;28;20037;-83
2023/03/02 04:01:03;;;;;;;161.17;43.23;;;1.30;99.90;;;;;;5021576;28;20041;-82
2023/03/02 04:03:29;;;;;;;124.30;39.50;;;1.30;99.90;;;;;;5032423;28;20041;-83
2023/03/02 04:05:54;;;;;;;119.03;40.70;;;1.40;99.90;;;;;;5018518;28;20045;-83
2023/03/02 04:08:20;;;;;;;248.17;47.53;;;1.30;99.90;;;;;;5019107;28;20051;-82
2023/03/02 04:10:46;;;;;;;122.83;38.77;;;1.40;99.90;;;;;;5035306;28;20055;-83
2023/03/02 04:13:12;;;;;;;260.73;48.53;;;1.40;99.90;;;;;;5009103;28;20037;-83
2023/03/02 04:15:38;;;;;;;246.80;49.83;;;1.40;99.90;;;;;;5030632;28;20037;-82
2023/03/02 04:18:04;;;;;;;281.57;53.17;;;1.40;99.90;;;;;;5042754;28;20044;-83
2023/03/02 04:20:30;;;;;;;247.80;51.70;;;1.40;99.90;;;;;;5051166;28;20049;-82
2023/03/02 04:22:57;;;;;;;207.40;45.60;;;1.40;99.90;;;;;;5019370;28;20389;-83
2023/03/02 04:25:25;;;;;;;278.90;57.33;;;1.40;99.90;;;;;;5034473;28;20439;-82
2023/03/02 04:27:52;;;;;;;259.47;53.33;;;1.40;99.90;;;;;;5048233;28;20040;-82
2023/03/02 04:30:21;;;;;;;278.40;55.33;;;1.30;99.90;;;;;;5038188;28;20037;-82
2023/03/02 04:32:47;;;;;;;238.30;51.00;;;1.30;99.90;;;;;;5037092;28;20393;-83
2023/03/02 04:35:13;;;;;;;297.90;61.70;;;1.30;99.90;;;;;;5049687;28;20037;-82
2023/03/02 04:37:40;;;;;;;193.90;44.50;;;1.30;99.90;;;;;;5018626;28;20037;-82
2023/03/02 04:40:08;;;;;;;298.90;57.60;;;1.30;99.90;;;;;;5023791;28;20041;-83
2023/03/02 04:42:34;;;;;;;189.73;46.07;;;1.30;99.90;;;;;;5037548;28;20084;-83
2023/03/02 04:45:00;;;;;;;247.17;50.17;;;1.20;99.90;;;;;;5055074;28;20413;-83
2023/03/02 04:47:26;;;;;;;315.60;57.10;;;1.20;99.90;;;;;;5028263;28;20033;-82
2023/03/02 04:49:56;;;;;;;336.20;60.43;;;1.20;99.90;;;;;;5039213;28;20091;-82
2023/03/02 04:52:23;;;;;;;272.87;51.80;;;1.10;99.90;;;;;;5050362;28;20112;-83
2023/03/02 04:54:49;;;;;;;333.20;60.23;;;1.10;99.90;;;;;;5047658;28;20121;-82
2023/03/02 04:57:15;;;;;;;480.13;74.20;;;1.10;99.90;;;;;;5050437;28;20121;-82
2023/03/02 04:59:41;;;;;;;444.17;74.73;;;1.10;99.90;;;;;;5027059;28;20176;-83
2023/03/02 05:02:07;;;;;;;367.43;67.33;;;1.10;99.90;;;;;;5008172;28;20048;-82
2023/03/02 05:04:32;;;;;;;414.27;72.43;;;1.10;99.90;;;;;;5034370;28;20503;-82
2023/03/02 05:06:58;;;;;;;387.83;67.70;;;1.00;99.90;;;;;;5018226;28;20061;-82
2023/03/02 05:09:29;;;;;;;431.80;74.40;;;1.00;99.90;;;;;;5024290;28;20251;-82
2023/03/02 05:11:58;;;;;;;409.23;76.03;;;1.00;99.90;;;;;;5018974;28;20041;-82
2023/03/02 05:14:25;;;;;;;262.00;57.47;;;1.00;99.90;;;;;;5025938;28;20048;-83
2023/03/02 05:16:52;;;;;;;377.50;73.10;;;1.00;99.90;;;;;;5053193;28;20502;-82
2023/03/02 05:19:17;;;;;;;337.83;63.70;;;1.00;99.90;;;;;;5044787;28;20045;-82
2023/03/02 05:21:43;;;;;;;350.87;66.70;;;1.00;99.90;;;;;;5049016;28;20040;-82
2023/03/02 05:24:10;;;;;;;331.73;61.33;;;0.90;99.90;;;;;;5036093;28;20056;-83
2023/03/02 05:26:36;;;;;;;280.33;60.47;;;0.90;99.90;;;;;;5017330;28;20041;-81
2023/03/02 05:29:03;;;;;;;196.80;51.10;;;0.90;99.90;;;;;;5037853;28;20075;-82
2023/03/02 05:31:33;;;;;;;298.07;63.23;;;1.00;99.90;;;;;;5047966;28;20123;-83
2023/03/02 05:34:00;;;;;;;261.67;56.07;;;0.90;99.90;;;;;;5051819;28;20471;-82
2023/03/02 05:36:26;;;;;;;213.20;52.53;;;1.00;99.90;;;;;;5008380;28;20119;-83
2023/03/02 05:38:51;;;;;;;207.33;51.90;;;1.00;99.90;;;;;;5028011;28;20137;-82
2023/03/02 05:41:17;;;;;;;315.30;64.43;;;0.90;99.90;;;;;;4998270;28;20076;-82
2023/03/02 05:43:43;;;;;;;288.13;60.27;;;1.00;99.90;;;;;;5052914;28;20039;-82
2023/03/02 05:46:09;;;;;;;375.90;68.60;;;1.00;99.90;;;;;;5053496;28;20415;-82
2023/03/02 05:48:35;;;;;;;323.13;61.83;;;1.00;99.90;;;;;;5016104;28;20049;-82
2023/03/02 05:51:01;;;;;;;344.97;64.60;;;1.00;99.90;;;;;;5027624;28;20490;-81
2023/03/02 05:53:26;;;;;;;287.97;57.40;;;0.90;99.90;;;;;;5039837;28;20095;-82
2023/03/02 05:55:53;;;;;;;230.07;53.17;;;0.90;99.90;;;;;;5028514;28;20040;-83
2023/03/02 05:58:19;;;;;;;328.90;60.87;;;0.90;99.90;;;;;;5053899;28;20119;-82
2023/03/02 06:00:46;;;;;;;242.13;54.63;;;0.80;99.90;;;;;;5007366;28;20559;-83
2023/03/02 06:03:11;;;;;;;405.53;70.53;;;0.80;99.90;;;;;;5017630;28;20047;-82
2023/03/02 06:05:38;;;;;;;316.07;61.23;;;0.90;99.90;;;;;;5014666;28;20408;-83
2023/03/02 06:08:04;;;;;;;350.33;65.63;;;0.90;99.90;;;;;;5047531;28;20045;-82
2023/03/02 06:10:30;;;;;;;344.40;65.23;;;0.90;99.90;;;;;;5035406;28;20045;-83
2023/03/02 06:12:56;;;;;;;433.53;76.30;;;0.90;99.90;;;;;;5012000;28;20075;-82
2023/03/02 06:15:22;;;;;;;427.50;79.63;;;1.00;99.90;;;;;;5026425;28;20033;-82
2023/03/02 06:17:48;;;;;;;266.93;60.17;;;0.90;99.90;;;;;;5010608;28;20392;-83
2023/03/02 06:20:14;;;;;;;327.13;61.00;;;1.00;99.90;;;;;;4998893;28;20076;-82
2023/03/02 06:22:45;;;;;;;317.87;62.70;;;1.00;99.90;;;;;;5028121;28;20553;-82
2023/03/02 06:25:16;;;;;;;205.50;52.57;;;1.00;99.90;;;;;;5028796;28;20432;-82
2023/03/02 06:27:43;;;;;;;494.52;87.80;;;1.00;99.90;;;;;;5035892;28;20055;-81
2023/03/02 06:30:14;;;;;;;287.87;57.63;;;1.00;99.90;;;;;;5010610;28;20102;-82
2023/03/02 06:32:41;;;;;;;219.00;52.45;;;1.00;99.90;;;;;;5030463;28;20047;-81
2023/03/02 06:35:08;;;;;;;189.40;48.33;;;1.10;99.90;;;;;;5032914;28;20032;-82
2023/03/02 06:37:34;;;;;;;159.50;45.10;;;1.00;99.90;;;;;;5014688;28;20040;-83
2023/03/02 06:39:59;;;;;;;168.97;46.87;;;1.00;99.90;;;;;;5001780;28;20033;-81
2023/03/02 06:42:26;;;;;;;156.87;47.40;;;1.00;99.90;;;;;;5002270;28;20068;-84
2023/03/02 06:44:53;;;;;;;157.43;47.37;;;0.90;99.90;;;;;;5017621;28;20465;-83
2023/03/02 06:47:21;;;;;;;179.40;48.93;;;0.90;99.90;;;;;;5033710;28;20080;-82
2023/03/02 06:49:47;;;;;;;158.30;47.40;;;0.90;99.90;;;;;;5005817;28;20047;-81
2023/03/02 06:52:13;;;;;;;204.70;51.63;;;1.00;99.90;;;;;;5020362;28;20041;-82
2023/03/02 06:54:39;;;;;;;228.10;54.03;;;1.00;99.90;;;;;;5019024;28;20122;-82
2023/03/02 06:57:06;;;;;;;155.83;48.90;;;1.10;99.90;;;;;;5016304;28;20147;-81
2023/03/02 06:59:32;;;;;;;245.90;58.23;;;1.10;99.90;;;;;;5039159;28;20047;-82
2023/03/02 07:01:58;;;;;;;284.67;61.07;;;1.10;99.90;;;;;;5042392;28;20692;-82
2023/03/02 07:04:23;;;;;;;279.43;58.53;;;1.10;99.90;;;;;;5000897;28;20056;-81
2023/03/02 07:06:49;;;;;;;295.60;60.90;;;1.10;99.90;;;;;;5027263;28;20140;-81
2023/03/02 07:09:15;;;;;;;273.47;56.30;;;1.10;99.90;;;;;;5022462;28;20055;-81
2023/03/02 07:11:40;;;;;;;254.53;54.83;;;1.00;99.90;;;;;;5039133;28;20033;-81
2023/03/02 07:14:06;;;;;;;256.70;55.17;;;1.00;99.90;;;;;;5026784;28;20040;-81
2023/03/02 07:16:33;;;;;;;292.40;58.03;;;1.10;99.90;;;;;;5039666;28;20090;-80
2023/03/02 07:18:59;;;;;;;330.00;64.93;;;1.00;99.90;;;;;;5039411;28;20438;-81
2023/03/02 07:21:25;;;;;;;254.53;54.87;;;1.00;99.90;;;;;;5047358;28;20063;-81
2023/03/02 07:23:51;;;;;;;259.70;52.60;;;1.10;99.90;;;;;;4996027;28;20042;-81
2023/03/02 07:26:17;;;;;;;258.10;54.80;;;1.10;99.90;;;;;;5017156;28;20051;-81
2023/03/02 07:28:43;;;;;;;353.00;62.80;;;1.10;99.90;;;;;;5019695;28;20037;-81
2023/03/02 07:31:10;;;;;;;124.53;42.07;;;1.10;99.90;;;;;;5042846;28;20404;-80
2023/03/02 07:33:37;;;;;;;204.77;49.57;;;1.10;99.90;;;;;;5051691;28;20033;-81
2023/03/02 07:36:04;;;;;;;160.67;44.63;;;1.10;99.90;;;;;;5041165;28;20086;-80
2023/03/02 07:38:29;;;;;;;150.20;43.07;;;1.10;99.90;;;;;;5058114;28;20072;-81
2023/03/02 07:40:55;;;;;;;204.67;50.40;;;1.10;99.90;;;;;;5032486;28;20061;-80
2023/03/02 07:43:24;;;;;;;243.00;50.13;;;1.20;99.90;;;;;;5039038;28;20075;-80
2023/03/02 07:45:50;;;;;;;282.67;55.60;;;1.10;99.90;;;;;;5024327;28;20060;-80
2023/03/02 07:48:16;;;;;;;261.47;50.80;;;1.10;99.90;;;;;;5049802;28;20055;-81
2023/03/02 07:50:41;;;;;;;221.30;50.83;;;1.00;99.90;;;;;;4999973;28;20041;-82
2023/03/02 07:53:07;;;;;;;169.93;44.37;;;1.00;99.90;;;;;;5039956;28;20044;-81
2023/03/02 07:55:33;;;;;;;164.57;42.30;;;0.90;99.90;;;;;;5022816;28;20530;-81
2023/03/02 07:57:58;;;;;;;246.77;55.40;;;0.90;99.90;;;;;;5056315;28;20094;-80
2023/03/02 08:00:24;;;;;;;216.63;46.70;;;0.90;99.90;;;;;;5044269;28;20052;-81
2023/03/02 08:02:50;;;;;;;170.90;43.03;;;0.90;99.90;;;;;;5037792;28;20051;-79
2023/03/02 08:05:16;;;;;;;163.07;41.10;;;0.90;99.90;;;;;;5050107;28;20045;-80
2023/03/02 08:07:42;;;;;;;161.43;42.30;;;0.90;99.90;;;;;;5015780;28;20103;-80
2023/03/02 08:10:09;;;;;;;137.40;43.10;;;1.00;99.90;;;;;;5042659;28;20040;-81
2023/03/02 08:12:35;;;;;;;124.47;40.90;;;1.00;99.90;;;;;;5026168;28;20048;-81
2023/03/02 08:15:00;;;;;;;141.03;39.43;;;1.10;99.90;;;;;;5010549;28;20129;-83
2023/03/02 08:17:26;;;;;;;135.20;38.93;;;1.10;99.90;;;;;;5018891;28;20033;-82
2023/03/02 08:19:52;;;;;;;218.63;50.53;;;1.10;99.90;;;;;;5027740;28;20095;-82
2023/03/02 08:22:17;;;;;;;173.30;43.40;;;1.10;99.90;;;;;;5015242;28;20040;-81
2023/03/02 08:24:43;;;;;;;121.47;39.77;;;1.10;99.90;;;;;;5012925;28;20041;-82
2023/03/02 08:27:13;;;;;;;207.47;53.83;;;1.10;99.90;;;;;;5033399;28;20045;-81
2023/03/02 08:29:39;;;;;;;106.43;38.20;;;1.10;99.90;;;;;;5048985;28;20041;-82
2023/03/02 08:32:05;;;;;;;121.10;39.93;;;1.10;99.90;;;;;;5026812;28;20532;-82
2023/03/02 08:34:31;;;;;;;222.93;52.40;;;1.10;99.90;;;;;;5007922;28;20033;-82
2023/03/02 08:36:56;;;;;;;169.87;46.00;;;1.10;99.90;;;;;;5033533;28;20040;-82
2023/03/02 08:39:23;;;;;;;115.73;37.73;;;1.20;99.90;;;;;;5026362;28;20123;-81
2023/03/02 08:41:52;;;;;;;98.50;37.80;;;1.20;99.90;;;;;;5033413;28;20041;-82
2023/03/02 08:44:20;;;;;;;133.10;39.30;;;1.30;99.90;;;;;;5018070;28;20044;-82
2023/03/02 08:46:50;;;;;;;107.17;36.57;;;1.30;99.90;;;;;;5018526;28;20081;-81
2023/03/02 08:49:17;;;;;;;88.90;35.07;;;1.30;99.90;;;;;;5044440;28;20115;-81
2023/03/02 08:51:43;;;;;;;97.90;35.30;;;1.40;99.90;;;;;;5043360;28;20052;-82
2023/03/02 08:54:12;;;;;;;131.03;38.50;;;1.40;99.90;;;;;;5041689;28;20043;-81
2023/03/02 08:56:39;;;;;;;91.03;35.50;;;1.50;99.90;;;;;;5018849;28;20045;-82
2023/03/02 08:59:08;;;;;;;163.27;37.70;;;1.50;99.90;;;;;;5017762;28;20038;-82
2023/03/02 09:01:36;;;;;;;154.23;38.27;;;1.60;99.90;;;;;;5015711;28;20033;-81
2023/03/02 09:04:03;;;;;;;122.63;34.57;;;1.50;99.90;;;;;;5014169;28;20183;-81
2023/03/02 09:06:31;;;;;;;97.33;33.33;;;1.50;99.90;;;;;;5019701;28;20493;-81
2023/03/02 09:08:57;;;;;;;94.47;34.23;;;1.40;99.90;;;;;;5043079;28;20065;-81
2023/03/02 09:11:23;;;;;;;131.50;36.40;;;1.40;99.90;;;;;;5011033;28;20049;-82
2023/03/02 09:13:49;;;;;;;84.00;32.60;;;1.50;99.90;;;;;;5012872;28;20166;-82
2023/03/02 09:16:18;;;;;;;189.20;37.33;;;1.50;99.90;;;;;;5034242;28;20060;-82
2023/03/02 09:18:45;;;;;;;236.23;42.73;;;1.60;99.90;;;;;;5006993;28;20553;-82
2023/03/02 09:21:11;;;;;;;231.23;43.83;;;1.50;99.90;;;;;;5017209;28;20049;-82
2023/03/02 09:23:36;;;;;;;168.80;40.00;;;1.50;99.90;;;;;;5033715;28;20174;-82
2023/03/02 09:26:03;;;;;;;333.93;63.37;;;1.50;99.90;;;;;;5018799;28;20041;-81
2023/03/02 09:28:29;;;;;;;158.73;43.00;;;1.50;99.90;;;;;;5033279;28;20130;-81
2023/03/02 09:31:03;;;;;;;190.53;41.73;;;1.60;99.90;;;;;;5034954;28;20072;-82
2023/03/02 09:33:30;;;;;;;104.17;35.77;;;1.60;99.90;;;;;;5013380;28;20037;-82
2023/03/02 09:35:56;;;;;;;99.23;34.87;;;1.70;99.90;;;;;;5034537;28;20029;-82
2023/03/02 09:38:22;;;;;;;75.40;34.57;;;1.80;99.90;;;;;;5039779;28;20516;-82
2023/03/02 09:41:12;;;;;;;75.07;34.17;;;1.80;99.90;;;;;;5021545;28;20045;-82
2023/03/02 09:43:57;;;;;;;93.97;33.80;;;1.90;99.90;;;;;;5003026;28;20195;-82
2023/03/02 09:46:33;;;;;;;64.47;31.77;;;2.00;99.90;;;;;;5045567;28;20045;-82
2023/03/02 09:49:06;;;;;;;70.10;32.97;;;2.10;99.90;;;;;;5044674;28;20033;-82
2023/03/02 09:51:41;;;;;;;71.57;32.17;;;2.20;99.90;;;;;;5024351;28;20045;-82
2023/03/02 09:54:09;;;;;;;72.97;30.20;;;2.30;99.90;;;;;;5018370;28;20046;-82
2023/03/02 09:56:48;;;;;;;80.23;31.27;;;2.30;99.90;;;;;;5043132;28;20404;-82
2023/03/02 09:59:19;;;;;;;198.83;43.20;;;2.30;99.90;;;;;;5046976;28;20041;-81
2023/03/02 10:01:52;;;;;;;134.40;35.77;;;2.20;99.90;;;;;;5043099;28;20055;-82
2023/03/02 10:04:27;;;;;;;137.63;35.10;;;2.20;99.90;;;;;;5046293;28;20049;-82
2023/03/02 10:07:21;;;;;;;94.83;34.53;;;2.10;99.90;;;;;;5026472;28;20037;-81
2023/03/02 10:09:47;;;;;;;184.50;42.67;;;2.10;99.90;;;;;;5017829;28;20469;-81
2023/03/02 10:12:41;;;;;;;99.93;32.13;;;2.10;99.90;;;;;;5030527;28;20040;-81
2023/03/02 10:15:13;;;;;;;76.07;30.50;;;2.10;99.90;;;;;;5024771;28;20077;-82
2023/03/02 10:17:51;;;;;;;96.40;34.88;;;2.10;99.90;;;;;;5035391;28;20113;-81
2023/03/02 10:20:33;;;;;;;86.03;32.53;;;2.20;99.90;;;;;;5016989;28;20041;-82
2023/03/02 10:23:26;;;;;;;99.22;31.83;;;2.20;99.90;;;;;;5031408;28;20072;-82
2023/03/02 10:25:54;;;;;;;;;;;2.30;99.90;;;;;;5029295;28;20132;-82
2023/03/02 10:28:22;;;;;;;82.53;33.93;;;2.30;99.90;;;;;;5028953;28;20007;-81
2023/03/02 10:31:04;;;;;;;147.53;39.47;;;2.20;99.90;;;;;;5024900;28;20040;-82
2023/03/02 10:33:32;;;;;;;96.07;35.47;;;2.20;99.90;;;;;;5044168;28;20045;-81
2023/03/02 10:35:59;;;;;;;123.53;36.27;;;2.20;99.90;;;;;;5054524;28;20044;-79
2023/03/02 10:38:28;;;;;;;91.40;34.93;;;2.30;99.90;;;;;;5021719;28;20111;-80
2023/03/02 10:40:59;;;;;;;96.63;34.07;;;2.30;99.90;;;;;;5053036;28;20048;-81
2023/03/02 10:43:30;;;;;;;67.97;32.53;;;2.30;99.90;;;;;;5008459;28;20045;-82
2023/03/02 10:46:08;;;;;;;92.22;37.80;;;2.40;99.90;;;;;;5023783;28;20199;-82
2023/03/02 10:49:00;;;;;;;72.07;31.93;;;2.40;99.90;;;;;;5050865;28;20080;-82
2023/03/02 10:51:34;;;;;;;77.23;30.87;;;2.50;99.90;;;;;;5030606;28;20076;-81
2023/03/02 10:54:05;;;;;;;63.90;30.57;;;2.50;99.90;;;;;;5018418;28;20115;-82
2023/03/02 10:56:32;;;;;;;63.67;28.80;;;2.50;99.90;;;;;;5033069;28;20120;-82
2023/03/02 10:59:02;;;;;;;65.00;29.73;;;2.40;99.90;;;;;;5006878;28;20044;-82
2023/03/02 11:01:30;;;;;;;60.50;29.40;;;2.50;99.90;;;;;;5027246;28;20557;-82
2023/03/02 11:03:58;;;;;;;60.57;30.33;;;2.60;99.90;;;;;;5028032;28;20063;-81
2023/03/02 11:06:24;;;;;;;61.33;30.43;;;2.70;99.90;;;;;;5049327;28;20037;-82
2023/03/02 11:09:01;;;;;;;61.90;29.80;;;2.80;99.90;;;;;;5005012;28;20153;-81
2023/03/02 11:11:27;;;;;;;57.63;29.17;;;2.70;99.90;;;;;;5038214;28;20544;-82
2023/03/02 11:13:55;;;;;;;59.50;28.37;;;2.70;99.90;;;;;;5041145;28;20129;-82
2023/03/02 11:16:29;;;;;;;57.57;29.07;;;2.80;99.90;;;;;;5037980;28;20544;-82
2023/03/02 11:19:01;;;;;;;53.97;27.23;;;2.70;99.90;;;;;;5029622;28;20460;-82
2023/03/02 11:21:45;;;;;;;58.10;28.98;;;2.80;99.90;;;;;;5020209;28;20083;-82
2023/03/02 11:24:10;;;;;;;55.93;28.70;;;2.90;99.90;;;;;;5021733;28;20124;-82
2023/03/02 11:26:53;;;;;;;54.33;29.33;;;3.00;99.90;;;;;;5050250;28;20124;-82
2023/03/02 11:29:43;;;;;;;54.50;27.77;;;3.10;99.90;;;;;;5031206;28;20045;-82
2023/03/02 11:32:26;;;;;;;51.53;26.73;;;3.10;99.90;;;;;;5014563;28;20048;-83
2023/03/02 11:35:12;;;;;;;50.10;26.27;;;3.10;99.90;;;;;;5034496;28;20041;-83
2023/03/02 11:37:46;;;;;;;52.40;27.10;;;3.10;99.90;;;;;;5046702;28;20041;-82
2023/03/02 11:40:17;;;;;;;54.63;27.40;;;3.10;99.90;;;;;;5029170;28;20132;-82
2023/03/02 11:42:44;;;;;;;53.23;27.63;;;3.10;99.90;;;;;;5016232;28;20129;-82
2023/03/02 11:45:13;;;;;;;49.90;26.97;;;3.00;99.90;;;;;;5050010;28;20098;-83
2023/03/02 11:47:48;;;;;;;52.83;28.63;;;3.00;99.90;;;;;;5047990;28;20048;-82
2023/03/02 11:50:15;;;;;;;51.77;26.47;;;3.20;99.90;;;;;;5046542;28;20102;-83
2023/03/02 11:52:50;;;;;;;51.50;26.93;;;3.20;99.90;;;;;;5027688;28;20048;-82
2023/03/02 11:55:27;;;;;;;56.37;27.93;;;3.30;99.90;;;;;;5018840;28;20365;-82
2023/03/02 11:58:00;;;;;;;57.13;27.80;;;3.40;99.90;;;;;;5040574;28;20124;-82
2023/03/02 12:00:38;;;;;;;49.23;25.53;;;3.50;99.90;;;;;;5035593;28;20055;-82
2023/03/02 12:03:05;;;;;;;50.90;25.67;;;3.60;99.90;;;;;;5023157;28;20037;-82
2023/03/02 12:05:37;;;;;;;44.53;24.30;;;3.60;99.90;;;;;;5010209;28;20029;-83
2023/03/02 12:08:26;;;;;;;47.28;24.88;;;3.60;99.90;;;;;;5035040;28;20036;-82
2023/03/02 12:11:01;;;;;;;47.13;25.80;;;3.70;99.90;;;;;;5033921;28;20049;-82
2023/03/02 12:13:33;;;;;;;46.17;23.97;;;3.70;99.90;;;;;;5064258;28;20028;-83
2023/03/02 12:15:59;;;;;;;43.53;24.80;;;3.80;99.90;;;;;;5035185;28;20032;-83
2023/03/02 12:18:28;;;;;;;46.70;24.67;;;3.90;99.90;;;;;;5051642;28;20086;-83
2023/03/02 12:21:01;;;;;;;48.87;25.03;;;4.10;99.90;;;;;;5028729;28;20091;-83
2023/03/02 12:23:27;;;;;;;45.23;24.30;;;4.10;99.90;;;;;;5027959;28;20111;-82
2023/03/02 12:26:20;;;;;;;47.20;25.50;;;4.20;99.90;;;;;;5035086;28;20041;-81
2023/03/02 12:29:01;;;;;;;43.30;23.73;;;4.10;99.90;;;;;;4999045;28;20110;-83
2023/03/02 12:31:46;;;;;;;46.73;24.87;;;4.20;99.90;;;;;;5029683;28;20091;-82
2023/03/02 12:34:31;;;;;;;43.40;24.43;;;4.10;99.90;;;;;;5021835;28;20040;-83
2023/03/02 12:37:30;;;;;;;43.67;22.23;;;3.90;99.90;;;;;;5018309;28;20041;-81
2023/03/02 12:40:08;;;;;;;41.17;21.50;;;3.70;99.90;;;;;;5036031;28;20044;-81
2023/03/02 12:42:36;;;;;;;43.27;22.10;;;3.60;99.90;;;;;;5021114;28;20050;-83